Time;durP1;ratioP1;P1;durP2;ratioP2;P2;SDS_P1;SDS_P2;PMS_P1;PMS_P2;Temp;Humidity;BMP_temperature;BMP_pressure;BME280_temperature;BME280_humidity;BME280_pressure;Samples;Min_cycle;Max_cycle;Signal;HPM_P1;HPM_P2
2021/06/12 00:00:17;;;;;;;5.87;3.67;;;;;;;12.46;82.35;95661.67;1790475;80;21005;-64
2021/06/12 00:02:47;;;;;;;6.77;4.07;;;;;;;12.58;81.94;95667.12;1790289;80;21000;-64
2021/06/12 00:05:15;;;;;;;7.87;4.20;;;;;;;12.60;81.42;95665.28;1790732;80;21538;-65
2021/06/12 00:07:41;;;;;;;6.07;3.90;;;;;;;12.61;81.26;95662.60;1790554;80;20972;-64
2021/06/12 00:10:13;;;;;;;5.47;3.40;;;;;;;12.62;81.18;95668.30;1790405;80;21075;-65
2021/06/12 00:12:41;;;;;;;7.10;3.77;;;;;;;12.56;80.95;95661.84;1789554;80;21444;-64
2021/06/12 00:15:12;;;;;;;5.17;3.10;;;;;;;12.42;81.56;95668.80;1762392;80;21601;-65
2021/06/12 00:17:40;;;;;;;4.33;2.90;;;;;;;12.35;81.79;95669.88;1790850;80;20976;-65
2021/06/12 00:20:11;;;;;;;3.80;3.30;;;;;;;12.26;80.83;95672.73;1790671;80;21514;-68
2021/06/12 00:22:38;;;;;;;6.30;3.53;;;;;;;12.15;80.65;95665.52;1790777;80;21051;-65
2021/06/12 00:25:07;;;;;;;5.67;3.50;;;;;;;12.06;81.49;95668.77;1790676;80;21019;-65
2021/06/12 00:27:34;;;;;;;4.57;3.03;;;;;;;11.96;82.27;95664.60;1790546;80;21542;-64
2021/06/12 00:30:00;;;;;;;4.17;3.30;;;;;;;11.85;82.05;95663.50;1790314;80;21000;-64
2021/06/12 00:32:26;;;;;;;6.20;3.80;;;;;;;11.84;81.95;95672.77;1790607;80;21056;-64
2021/06/12 00:34:53;;;;;;;5.30;3.70;;;;;;;11.78;82.96;95669.82;1790330;80;20996;-64
2021/06/12 00:37:19;;;;;;;4.97;3.43;;;;;;;11.80;83.24;95668.48;1790391;80;21562;-64
2021/06/12 00:39:46;;;;;;;5.47;3.67;;;;;;;11.81;82.98;95670.20;1791084;80;20999;-64
2021/06/12 00:42:13;;;;;;;4.67;4.10;;;;;;;11.78;83.11;95667.18;1790642;80;21078;-65
2021/06/12 00:44:40;;;;;;;5.87;4.13;;;;;;;11.78;82.78;95664.53;1790886;80;21500;-66
2021/06/12 00:47:06;;;;;;;4.93;3.90;;;;;;;11.84;82.86;95664.42;1790318;80;20992;-65
2021/06/12 00:49:33;;;;;;;3.87;3.40;;;;;;;11.84;82.89;95665.73;1790462;80;21015;-65
2021/06/12 00:52:00;;;;;;;4.57;3.50;;;;;;;11.83;82.41;95658.69;1791113;80;21048;-65
2021/06/12 00:54:27;;;;;;;5.10;3.60;;;;;;;11.89;82.14;95653.74;1790748;80;21028;-64
2021/06/12 00:56:54;;;;;;;4.43;3.10;;;;;;;11.82;81.76;95656.97;1790700;80;21043;-65
2021/06/12 00:59:21;;;;;;;5.43;3.50;;;;;;;11.71;81.49;95655.00;1790970;80;20951;-64
2021/06/12 01:01:50;;;;;;;9.53;3.40;;;;;;;11.54;82.39;95652.74;1790828;80;21048;-65
2021/06/12 01:04:17;;;;;;;4.67;3.63;;;;;;;11.58;83.12;95657.50;1774417;80;21011;-64
2021/06/12 01:06:50;;;;;;;6.83;3.60;;;;;;;11.62;82.82;95660.05;1773096;81;21056;-65
2021/06/12 01:09:22;;;;;;;6.90;3.83;;;;;;;11.72;82.30;95667.33;1757968;81;21052;-65
2021/06/12 01:12:23;;;;;;;7.87;3.50;;;;;;;11.75;82.16;95663.75;1773394;81;20996;-64
2021/06/12 01:14:54;;;;;;;11.53;3.90;;;;;;;11.75;82.08;95662.42;1773216;80;21020;-68
2021/06/12 01:17:35;;;;;;;5.30;3.67;;;;;;;11.75;81.59;95667.25;1773259;80;21023;-64
2021/06/12 01:20:30;;;;;;;4.10;3.70;;;;;;;11.82;81.48;95668.86;1773052;80;21011;-64
2021/06/12 01:23:14;;;;;;;6.10;3.20;;;;;;;11.90;81.13;95662.11;1773292;81;21454;-64
2021/06/12 01:25:55;;;;;;;5.20;3.37;;;;;;;11.81;80.78;95667.10;1772855;80;21107;-64
2021/06/12 01:28:36;;;;;;;3.67;3.10;;;;;;;11.77;80.37;95664.55;1773395;80;21529;-64
2021/06/12 01:31:05;;;;;;;6.10;3.03;;;;;;;11.71;80.47;95665.56;1772412;80;21031;-64
2021/06/12 01:33:32;;;;;;;5.37;3.33;;;;;;;11.53;80.38;95666.84;1758091;81;20987;-64
2021/06/12 01:36:02;;;;;;;4.50;3.30;;;;;;;11.40;81.02;95664.91;1773280;80;20992;-64
2021/06/12 01:38:36;;;;;;;6.40;3.40;;;;;;;11.30;81.44;95668.64;1773261;80;21028;-64
2021/06/12 01:41:06;;;;;;;3.63;3.20;;;;;;;11.31;81.41;95665.54;1773372;81;21118;-64
2021/06/12 01:43:35;;;;;;;5.97;2.87;;;;;;;11.28;81.27;95662.51;1773097;80;21485;-64
2021/06/12 01:46:02;;;;;;;4.40;3.10;;;;;;;11.18;81.38;95659.64;1772957;81;21020;-64
2021/06/12 01:48:31;;;;;;;3.07;2.77;;;;;;;11.10;81.13;95661.11;1757984;81;20988;-64
2021/06/12 01:51:00;;;;;;;4.60;3.80;;;;;;;11.05;81.86;95655.05;1772896;81;21059;-64
2021/06/12 01:53:31;;;;;;;4.17;3.40;;;;;;;11.00;81.50;95655.13;1773044;80;21003;-64
2021/06/12 01:56:06;;;;;;;5.87;3.20;;;;;;;10.97;83.32;95656.52;1773193;80;21047;-64
2021/06/12 01:58:37;;;;;;;6.90;3.33;;;;;;;10.97;82.72;95654.33;1772238;80;21087;-64
2021/06/12 02:01:07;;;;;;;4.80;3.77;;;;;;;10.93;82.90;95651.31;1773167;81;21458;-65
2021/06/12 02:03:35;;;;;;;4.93;3.70;;;;;;;10.97;83.14;95656.97;1773085;80;21521;-65
2021/06/12 02:06:03;;;;;;;3.50;3.20;;;;;;;10.94;82.69;95653.08;1773059;81;21046;-64
2021/06/12 02:08:33;;;;;;;5.47;3.60;;;;;;;10.93;82.61;95653.95;1773107;81;21000;-64
2021/06/12 02:10:59;;;;;;;3.90;3.27;;;;;;;10.84;82.80;95651.05;1773236;80;21016;-65
2021/06/12 02:13:26;;;;;;;5.53;3.40;;;;;;;10.79;82.99;95651.59;1772606;80;21024;-65
2021/06/12 02:15:56;;;;;;;3.73;3.03;;;;;;;10.75;82.56;95654.72;1773125;80;21032;-65
2021/06/12 02:18:26;;;;;;;4.17;3.00;;;;;;;10.77;82.54;95658.20;1773252;80;21500;-65
2021/06/12 02:20:55;;;;;;;7.30;3.47;;;;;;;10.75;82.85;95648.58;1773010;80;21039;-65
2021/06/12 02:23:25;;;;;;;4.03;3.07;;;;;;;10.73;82.87;95647.73;1773113;80;21502;-64
2021/06/12 02:25:52;;;;;;;5.23;3.20;;;;;;;10.74;82.70;95649.48;1773215;80;21036;-65
2021/06/12 02:28:22;;;;;;;5.50;3.00;;;;;;;10.77;82.54;95649.42;1773027;81;21011;-64
2021/06/12 02:31:08;;;;;;;4.90;3.20;;;;;;;10.78;82.51;95652.02;1773099;80;20968;-64
2021/06/12 02:33:39;;;;;;;3.70;3.03;;;;;;;10.70;83.04;95646.47;1772970;81;21004;-64
2021/06/12 02:36:07;;;;;;;7.90;3.23;;;;;;;10.74;83.00;95646.39;1773209;81;20993;-64
2021/06/12 02:38:33;;;;;;;4.33;3.30;;;;;;;10.78;82.76;95641.91;1773140;80;21051;-64
2021/06/12 02:41:00;;;;;;;4.07;3.50;;;;;;;10.78;82.41;95640.14;1772747;81;21016;-64
2021/06/12 02:43:28;;;;;;;4.23;3.47;;;;;;;10.79;82.74;95639.72;1773055;81;21015;-64
2021/06/12 02:45:56;;;;;;;5.63;3.90;;;;;;;10.76;83.10;95641.06;1772725;81;20996;-64
2021/06/12 02:48:28;;;;;;;3.93;3.40;;;;;;;10.77;82.81;95645.01;1773143;80;21003;-64
2021/06/12 02:50:58;;;;;;;4.20;3.13;;;;;;;10.78;83.17;95643.23;1773297;80;21001;-64
2021/06/12 02:53:28;;;;;;;6.47;2.90;;;;;;;10.76;82.93;95646.34;1773127;80;20968;-64
2021/06/12 02:55:59;;;;;;;3.47;3.17;;;;;;;10.73;82.49;95649.91;1804979;79;21006;-64
2021/06/12 02:58:27;;;;;;;5.23;3.37;;;;;;;10.57;83.00;95655.92;1805233;79;20990;-64
2021/06/12 03:00:56;;;;;;;3.60;3.20;;;;;;;10.56;83.00;95654.20;1766911;81;21020;-64
2021/06/12 03:03:25;;;;;;;7.07;3.77;;;;;;;10.54;83.43;95652.48;1756825;81;21047;-64
2021/06/12 03:05:58;;;;;;;5.93;3.50;;;;;;;10.64;83.45;95654.52;1749109;82;21439;-64
2021/06/12 03:08:33;;;;;;;4.62;3.50;;;;;;;10.76;83.30;95657.80;1768615;81;21000;-64
2021/06/12 03:11:03;;;;;;;6.20;3.80;;;;;;;10.79;83.04;95663.02;1774457;81;21024;-64
2021/06/12 03:13:32;;;;;;;4.60;4.03;;;;;;;10.84;82.83;95661.61;1832509;78;21025;-64
2021/06/12 03:16:00;;;;;;;5.23;3.77;;;;;;;10.85;82.48;95662.02;1832170;78;21037;-64
2021/06/12 03:18:28;;;;;;;5.60;3.07;;;;;;;10.83;82.09;95668.67;1832574;78;20971;-64
2021/06/12 03:20:58;;;;;;;5.90;3.60;;;;;;;10.77;82.07;95663.48;1832451;78;21050;-64
2021/06/12 03:23:28;;;;;;;4.77;3.47;;;;;;;10.67;83.35;95667.19;1832575;78;21443;-64
2021/06/12 03:25:56;;;;;;;8.50;3.47;;;;;;;10.68;83.70;95666.28;1832502;78;20967;-65
2021/06/12 03:28:23;;;;;;;3.70;3.33;;;;;;;10.66;84.16;95665.46;1832527;78;21007;-64
2021/06/12 03:30:51;;;;;;;10.07;4.43;;;;;;;10.73;83.84;95671.48;1832521;78;20990;-65
2021/06/12 03:33:18;;;;;;;5.63;4.10;;;;;;;10.78;84.45;95667.85;1832452;78;20963;-64
2021/06/12 03:35:45;;;;;;;3.30;3.00;;;;;;;10.86;84.13;95666.42;1832375;78;20986;-64
2021/06/12 03:38:13;;;;;;;4.50;4.03;;;;;;;10.92;84.23;95665.43;1832457;78;21428;-64
2021/06/12 03:40:41;;;;;;;4.43;4.00;;;;;;;10.94;84.75;95669.78;1832268;78;21531;-64
2021/06/12 03:43:10;;;;;;;5.93;3.93;;;;;;;11.04;84.09;95668.70;1834350;77;21449;-64
2021/06/12 03:45:42;;;;;;;5.73;4.23;;;;;;;11.13;84.97;95674.24;1832624;78;20986;-64
2021/06/12 03:48:11;;;;;;;5.67;4.10;;;;;;;11.28;84.48;95669.57;1832121;78;20967;-64
2021/06/12 03:50:39;;;;;;;7.37;4.73;;;;;;;11.36;84.91;95668.50;1832539;78;20951;-65
2021/06/12 03:53:07;;;;;;;6.70;5.13;;;;;;;11.51;84.42;95676.56;1832713;78;21041;-64
2021/06/12 03:55:34;;;;;;;5.80;4.73;;;;;;;11.66;84.12;95671.41;1832517;78;21500;-64
2021/06/12 03:58:01;;;;;;;7.77;5.33;;;;;;;11.83;83.95;95671.91;1832481;78;20963;-64
2021/06/12 04:00:31;;;;;;;7.83;5.67;;;;;;;12.01;83.71;95675.94;1832181;78;20990;-65
2021/06/12 04:02:58;;;;;;;9.23;5.33;;;;;;;12.09;83.03;95672.66;1832390;78;20954;-65
2021/06/12 04:05:24;;;;;;;8.43;5.93;;;;;;;12.16;83.11;95680.02;1834460;78;21535;-65
2021/06/12 04:07:51;;;;;;;7.80;5.73;;;;;;;12.27;82.84;95667.42;1834831;78;20939;-64
2021/06/12 04:10:18;;;;;;;6.10;5.33;;;;;;;12.30;82.54;95672.63;1834558;78;21066;-64
2021/06/12 04:12:44;;;;;;;7.27;5.87;;;;;;;12.37;82.79;95670.69;1835028;78;21065;-65
2021/06/12 04:15:13;;;;;;;8.43;6.23;;;;;;;12.54;82.78;95679.08;1835139;78;20981;-64
2021/06/12 04:17:44;;;;;;;6.77;6.07;;;;;;;12.66;82.54;95676.59;1834880;78;20943;-65
2021/06/12 04:20:13;;;;;;;9.43;6.37;;;;;;;12.75;82.46;95680.77;1835360;78;21002;-65
2021/06/12 04:22:41;;;;;;;9.93;6.57;;;;;;;12.86;82.29;95673.42;1835007;78;20986;-64
2021/06/12 04:25:10;;;;;;;8.23;6.67;;;;;;;13.04;82.13;95673.86;1834962;78;21050;-64
2021/06/12 04:27:36;;;;;;;9.30;6.90;;;;;;;13.14;81.89;95675.34;1831949;78;20966;-64
2021/06/12 04:30:05;;;;;;;10.57;7.70;;;;;;;13.25;81.83;95679.02;1834975;78;21014;-64
2021/06/12 04:32:31;;;;;;;10.07;7.83;;;;;;;13.39;81.86;95676.42;1834860;78;21499;-64
2021/06/12 04:34:58;;;;;;;11.20;8.43;;;;;;;13.53;81.35;95679.13;1834523;78;21066;-64
2021/06/12 04:37:24;;;;;;;14.67;9.60;;;;;;;13.62;81.22;95689.02;1834660;78;21577;-64
2021/06/12 04:39:51;;;;;;;10.60;9.13;;;;;;;13.74;81.31;95685.61;1834904;78;21042;-65
2021/06/12 04:42:18;;;;;;;11.17;8.53;;;;;;;13.86;81.75;95689.23;1835066;78;21020;-64
2021/06/12 04:44:44;;;;;;;9.73;8.17;;;;;;;13.94;81.65;95692.52;1835025;78;20943;-64
2021/06/12 04:47:11;;;;;;;11.90;7.60;;;;;;;14.02;81.36;95685.65;1834311;78;20990;-64
2021/06/12 04:49:37;;;;;;;7.47;6.37;;;;;;;14.09;81.67;95681.03;1834643;78;21104;-64
2021/06/12 04:52:05;;;;;;;7.53;6.83;;;;;;;14.17;81.75;95687.83;1834610;78;20995;-64
2021/06/12 04:54:31;;;;;;;11.77;8.43;;;;;;;14.23;81.72;95690.73;1834792;78;21029;-64
2021/06/12 04:56:58;;;;;;;10.40;7.30;;;;;;;14.27;81.43;95690.59;1834649;78;20994;-64
2021/06/12 04:59:25;;;;;;;7.93;6.50;;;;;;;14.37;81.31;95682.36;1835049;78;21014;-65
2021/06/12 05:01:51;;;;;;;11.27;7.80;;;;;;;14.45;81.15;95689.61;1834475;78;20998;-64
2021/06/12 05:04:18;;;;;;;8.40;7.17;;;;;;;14.57;81.07;95688.38;1819664;78;21459;-64
2021/06/12 05:06:44;;;;;;;9.83;6.37;;;;;;;14.64;80.61;95685.47;1805182;79;21051;-64
2021/06/12 05:09:10;;;;;;;7.57;6.70;;;;;;;14.76;80.41;95689.95;1805025;79;21002;-64
2021/06/12 05:11:37;;;;;;;7.20;5.93;;;;;;;14.95;82.44;95692.88;1805289;79;20978;-65
2021/06/12 05:14:04;;;;;;;5.67;5.17;;;;;;;15.06;80.14;95690.23;1804897;79;21050;-65
2021/06/12 05:16:33;;;;;;;8.45;5.72;;;;;;;15.17;77.90;95694.30;1805105;79;20939;-64
2021/06/12 05:18:59;;;;;;;7.03;6.27;;;;;;;15.29;78.07;95694.73;1758990;82;20977;-64
2021/06/12 05:21:27;;;;;;;7.62;6.55;;;;;;;15.44;77.85;95683.16;1758986;82;21040;-64
2021/06/12 05:23:54;;;;;;;9.93;6.67;;;;;;;15.59;77.46;95689.24;1758867;81;21111;-64
2021/06/12 05:26:21;;;;;;;7.10;5.33;;;;;;;15.75;77.73;95685.61;1758873;81;21032;-64
2021/06/12 05:28:47;;;;;;;8.45;5.53;;;;;;;15.92;77.80;95683.16;1758661;82;21020;-65
2021/06/12 05:31:14;;;;;;;9.18;7.55;;;;;;;16.11;78.01;95690.45;1758966;82;21027;-64
2021/06/12 05:33:40;;;;;;;7.90;6.00;;;;;;;16.33;78.14;95682.03;1758724;82;21491;-64
2021/06/12 05:36:07;;;;;;;8.10;7.08;;;;;;;16.56;77.75;95679.77;1759279;82;21352;-64
2021/06/12 05:38:35;;;;;;;6.53;5.83;;;;;;;16.75;77.32;95680.33;1758627;82;21063;-64
2021/06/12 05:41:02;;;;;;;5.45;4.95;;;;;;;16.92;76.84;95679.67;1759109;81;21016;-64
2021/06/12 05:43:28;;;;;;;5.17;4.67;;;;;;;17.03;75.61;95676.97;1758745;82;21056;-64
2021/06/12 05:45:55;;;;;;;7.75;4.50;;;;;;;17.13;75.00;95677.41;1758948;82;21514;-64
2021/06/12 05:48:24;;;;;;;5.28;4.33;;;;;;;17.21;73.95;95683.30;1758779;81;21044;-64
2021/06/12 05:50:50;;;;;;;5.17;4.67;;;;;;;17.36;73.66;95683.55;1758742;81;21044;-65
2021/06/12 05:53:17;;;;;;;5.12;4.60;;;;;;;17.43;73.43;95674.34;1758561;82;21549;-65
2021/06/12 05:55:44;;;;;;;5.50;4.80;;;;;;;17.58;73.56;95676.33;1758529;82;21012;-65
2021/06/12 05:58:11;;;;;;;6.30;4.85;;;;;;;17.72;73.62;95677.91;1758910;81;21535;-64
2021/06/12 06:00:38;;;;;;;9.13;6.42;;;;;;;17.77;73.28;95681.72;1759011;81;20992;-64
2021/06/12 06:03:05;;;;;;;6.65;6.05;;;;;;;17.83;72.33;95680.13;1758738;82;21087;-64
2021/06/12 06:05:31;;;;;;;6.95;6.03;;;;;;;17.93;72.58;95678.76;1777374;81;21023;-64
2021/06/12 06:07:58;;;;;;;6.78;5.97;;;;;;;18.06;72.74;95679.05;1779375;81;21000;-64
2021/06/12 06:10:25;;;;;;;9.48;6.50;;;;;;;18.12;70.80;95672.11;1779637;81;21072;-64
2021/06/12 06:12:52;;;;;;;5.75;5.15;;;;;;;18.16;70.47;95675.02;1779669;81;21111;-64
2021/06/12 06:15:19;;;;;;;6.47;5.10;;;;;;;18.27;70.67;95671.86;1780036;81;21083;-64
2021/06/12 06:17:46;;;;;;;5.70;5.20;;;;;;;18.34;69.70;95670.63;1779158;81;21147;-64
2021/06/12 06:20:14;;;;;;;5.30;4.80;;;;;;;18.42;70.51;95665.36;1779579;81;21135;-64
2021/06/12 06:22:41;;;;;;;6.15;4.35;;;;;;;18.52;69.40;95670.20;1779656;81;21071;-64
2021/06/12 06:25:10;;;;;;;4.78;4.25;;;;;;;18.62;69.14;95673.27;1779689;81;20961;-65
2021/06/12 06:27:37;;;;;;;4.62;4.22;;;;;;;18.70;68.22;95667.09;1779654;81;21477;-64
2021/06/12 06:30:07;;;;;;;4.85;3.80;;;;;;;18.84;68.40;95665.57;1779595;81;21012;-64
2021/06/12 06:32:34;;;;;;;8.20;3.90;;;;;;;18.97;67.89;95674.22;1779463;81;21023;-65
2021/06/12 06:35:02;;;;;;;6.95;4.42;;;;;;;19.11;67.93;95665.99;1779835;81;21015;-64
2021/06/12 06:37:29;;;;;;;5.17;4.67;;;;;;;19.22;68.49;95664.95;1779376;81;21087;-64
2021/06/12 06:39:55;;;;;;;5.67;5.05;;;;;;;19.35;67.54;95668.75;1779688;81;21024;-64
2021/06/12 06:42:22;;;;;;;5.72;4.40;;;;;;;19.46;67.85;95667.70;1779768;81;21027;-64
2021/06/12 06:44:48;;;;;;;4.85;4.42;;;;;;;19.55;67.12;95669.49;1779595;81;21011;-64
2021/06/12 06:47:15;;;;;;;8.53;4.65;;;;;;;19.61;65.67;95666.52;1779632;81;21035;-64
2021/06/12 06:49:41;;;;;;;4.45;4.05;;;;;;;19.70;65.53;95662.02;1779674;81;21059;-65
2021/06/12 06:52:08;;;;;;;4.92;4.40;;;;;;;19.83;65.92;95662.22;1779451;81;21068;-64
2021/06/12 06:54:36;;;;;;;5.95;4.75;;;;;;;19.93;64.18;95660.77;1779337;81;21517;-64
2021/06/12 06:57:03;;;;;;;4.85;4.17;;;;;;;20.00;62.77;95659.49;1779648;81;21015;-64
2021/06/12 06:59:30;;;;;;;5.45;4.25;;;;;;;20.15;63.86;95664.48;1779700;81;21050;-64
2021/06/12 07:01:56;;;;;;;4.62;4.22;;;;;;;20.28;63.75;95666.01;1779540;81;21019;-64
2021/06/12 07:04:23;;;;;;;5.97;4.30;;;;;;;20.35;61.40;95658.02;1779157;81;21058;-64
2021/06/12 07:06:50;;;;;;;6.65;3.60;;;;;;;20.41;59.33;95658.14;1779330;81;21022;-64
2021/06/12 07:09:16;;;;;;;5.40;3.95;;;;;;;20.53;60.65;95661.47;1779241;81;21058;-64
2021/06/12 07:11:43;;;;;;;6.62;3.98;;;;;;;20.68;60.55;95653.92;1779452;81;21054;-64
2021/06/12 07:14:09;;;;;;;5.35;4.10;;;;;;;20.77;59.20;95663.27;1779725;81;21028;-65
2021/06/12 07:16:36;;;;;;;4.05;3.75;;;;;;;20.87;59.02;95659.59;1779929;81;21019;-64
2021/06/12 07:19:02;;;;;;;4.20;3.80;;;;;;;20.94;56.01;95656.91;1779515;81;21027;-64
2021/06/12 07:21:29;;;;;;;6.17;3.72;;;;;;;20.95;54.60;95654.63;1779411;81;21509;-64
2021/06/12 07:23:55;;;;;;;5.90;3.90;;;;;;;21.05;57.17;95655.81;1779308;81;21059;-64
2021/06/12 07:26:22;;;;;;;4.20;3.80;;;;;;;21.14;57.38;95655.28;1779462;81;21019;-64
2021/06/12 07:28:50;;;;;;;4.10;3.75;;;;;;;21.27;57.17;95654.07;1779617;81;21099;-65
2021/06/12 07:31:17;;;;;;;4.08;3.67;;;;;;;21.31;54.14;95658.77;1779708;81;21012;-64
2021/06/12 07:33:44;;;;;;;5.78;4.50;;;;;;;21.38;54.86;95649.39;1779325;81;21076;-64
2021/06/12 07:36:11;;;;;;;5.47;3.90;;;;;;;21.44;54.46;95645.50;1779292;81;21007;-65
2021/06/12 07:38:38;;;;;;;7.42;4.12;;;;;;;21.54;53.92;95652.89;1779714;81;20987;-64
2021/06/12 07:41:04;;;;;;;4.58;4.15;;;;;;;21.64;55.29;95649.16;1779721;81;21058;-64
2021/06/12 07:43:31;;;;;;;5.12;3.98;;;;;;;21.81;56.18;95647.64;1779245;81;21015;-64
2021/06/12 07:45:57;;;;;;;4.85;3.83;;;;;;;21.91;56.01;95643.91;1779314;81;21036;-64
2021/06/12 07:48:24;;;;;;;5.10;4.00;;;;;;;22.05;56.01;95649.78;1779276;81;21103;-65
2021/06/12 07:50:51;;;;;;;4.40;3.85;;;;;;;22.11;53.62;95644.00;1779365;81;21083;-64
2021/06/12 07:53:17;;;;;;;5.10;4.20;;;;;;;22.21;56.22;95647.86;1779308;81;21036;-64
2021/06/12 07:55:44;;;;;;;5.37;3.72;;;;;;;22.37;55.74;95645.04;1779242;81;21083;-64
2021/06/12 07:58:10;;;;;;;4.30;3.83;;;;;;;22.52;53.92;95643.19;1779572;81;21011;-64
2021/06/12 08:00:37;;;;;;;4.53;4.12;;;;;;;22.46;54.59;95645.80;1779316;81;21063;-64
2021/06/12 08:03:04;;;;;;;5.90;3.87;;;;;;;22.46;54.41;95644.95;1779707;81;21520;-65
2021/06/12 08:05:31;;;;;;;4.78;4.00;;;;;;;22.70;56.18;95639.77;1773791;81;21009;-64
2021/06/12 08:07:58;;;;;;;4.92;3.60;;;;;;;22.91;54.43;95640.20;1770947;81;21015;-65
2021/06/12 08:10:25;;;;;;;5.37;3.58;;;;;;;23.01;53.57;95637.80;1770960;81;21505;-65
2021/06/12 08:12:52;;;;;;;4.03;3.60;;;;;;;23.12;54.10;95640.61;1770941;81;21454;-65
2021/06/12 08:15:19;;;;;;;4.20;3.72;;;;;;;23.32;54.39;95642.80;1771103;81;21019;-64
2021/06/12 08:17:46;;;;;;;3.72;3.42;;;;;;;23.36;52.32;95635.86;1770207;81;21015;-65
2021/06/12 08:20:13;;;;;;;4.78;4.08;;;;;;;23.53;53.04;95635.06;1770775;81;21058;-65
2021/06/12 08:22:41;;;;;;;4.60;3.50;;;;;;;23.78;51.16;95634.74;1770611;81;21024;-64
2021/06/12 08:25:11;;;;;;;5.08;3.58;;;;;;;23.91;46.54;95636.08;1770805;81;21498;-64
2021/06/12 08:27:38;;;;;;;3.85;3.45;;;;;;;23.94;46.58;95634.05;1770989;81;21047;-64
2021/06/12 08:30:08;;;;;;;5.72;3.70;;;;;;;23.92;46.92;95631.09;1770914;81;21047;-64
2021/06/12 08:32:34;;;;;;;4.45;3.80;;;;;;;23.60;46.12;95638.20;1770997;81;21596;-64
2021/06/12 08:35:01;;;;;;;4.28;3.70;;;;;;;23.26;46.49;95638.34;1770438;81;21062;-64
2021/06/12 08:37:27;;;;;;;4.30;3.90;;;;;;;22.99;47.55;95643.75;1770888;81;20956;-64
2021/06/12 08:39:55;;;;;;;4.70;4.22;;;;;;;22.71;48.42;95633.94;1770456;81;21082;-64
2021/06/12 08:42:22;;;;;;;5.80;4.40;;;;;;;22.55;49.14;95638.95;1770705;81;21056;-64
2021/06/12 08:44:52;;;;;;;4.28;3.90;;;;;;;22.44;49.52;95631.59;1770939;81;21506;-64
2021/06/12 08:47:19;;;;;;;4.42;4.03;;;;;;;22.35;49.10;95635.35;1770511;81;21080;-64
2021/06/12 08:49:45;;;;;;;3.75;3.40;;;;;;;22.29;50.63;95629.90;1770752;81;21035;-64
2021/06/12 08:52:13;;;;;;;3.90;3.33;;;;;;;22.57;50.64;95626.27;1770934;81;21008;-64
2021/06/12 08:54:41;;;;;;;4.53;3.65;;;;;;;23.06;49.89;95628.92;1770706;81;21058;-64
2021/06/12 08:57:12;;;;;;;4.90;3.27;;;;;;;23.17;47.63;95626.84;1770914;81;21122;-64
2021/06/12 08:59:39;;;;;;;5.70;4.12;;;;;;;23.14;47.06;95623.02;1771096;81;21027;-64
2021/06/12 09:02:07;;;;;;;5.28;3.95;;;;;;;22.96;45.79;95626.44;1771072;81;21054;-64
2021/06/12 09:04:43;;;;;;;4.62;4.05;;;;;;;22.75;46.94;95627.38;1770883;81;21621;-64
2021/06/12 09:07:20;;;;;;;11.55;4.42;;;;;;;22.55;49.67;95628.68;1771253;81;21059;-64
2021/06/12 09:09:51;;;;;;;6.10;3.85;;;;;;;22.36;50.61;95623.17;1766675;81;21023;-64
2021/06/12 09:12:19;;;;;;;6.10;4.20;;;;;;;22.22;50.53;95620.50;1769946;81;20992;-64
2021/06/12 09:15:09;;;;;;;5.45;4.03;;;;;;;22.14;50.13;95623.64;1771070;81;21039;-64
2021/06/12 09:17:50;;;;;;;5.55;4.08;;;;;;;22.00;51.06;95627.22;1761602;81;21040;-64
2021/06/12 09:20:31;;;;;;;4.95;4.45;;;;;;;21.89;52.52;95631.05;1770890;81;21079;-64
2021/06/12 09:23:16;;;;;;;6.62;4.53;;;;;;;21.79;52.52;95633.93;1769395;81;21540;-64
2021/06/12 09:25:46;;;;;;;7.03;4.60;;;;;;;21.61;52.55;95631.42;1771201;81;21486;-64
2021/06/12 09:28:13;;;;;;;9.10;4.28;;;;;;;21.45;52.99;95639.19;1771068;81;21087;-64
2021/06/12 09:30:41;;;;;;;5.33;4.22;;;;;;;21.33;53.99;95627.33;1771058;81;21004;-64
2021/06/12 09:33:08;;;;;;;5.28;4.75;;;;;;;21.16;55.25;95627.86;1770572;81;21099;-65
2021/06/12 09:35:39;;;;;;;6.62;4.00;;;;;;;21.09;56.07;95626.97;1771096;81;21027;-64
2021/06/12 09:38:28;;;;;;;6.00;4.55;;;;;;;21.09;57.64;95639.05;1770960;81;21027;-64
2021/06/12 09:40:54;;;;;;;9.63;4.53;;;;;;;21.11;58.18;95633.12;1770992;81;21489;-64
2021/06/12 09:43:32;;;;;;;6.08;4.58;;;;;;;21.04;56.99;95631.30;1770829;81;21060;-64
2021/06/12 09:45:59;;;;;;;5.10;4.62;;;;;;;21.01;56.75;95618.05;1738393;81;21027;-64
2021/06/12 09:48:26;;;;;;;5.15;4.40;;;;;;;21.00;60.18;95620.35;1770603;81;21258;-64
2021/06/12 09:51:14;;;;;;;5.40;4.90;;;;;;;20.93;59.45;95619.84;1771020;81;21485;-64
2021/06/12 09:53:50;;;;;;;4.80;4.40;;;;;;;20.90;59.23;95625.87;1771014;81;21008;-64
2021/06/12 09:56:18;;;;;;;4.62;4.22;;;;;;;20.92;58.64;95629.34;1770423;81;21011;-64
2021/06/12 09:58:45;;;;;;;9.45;6.67;;;;;;;20.88;59.36;95642.53;1771035;81;21004;-64
2021/06/12 10:01:14;;;;;;;7.83;5.30;;;;;;;20.89;60.20;95641.56;1770704;81;21075;-64
2021/06/12 10:03:41;;;;;;;12.90;7.90;;;;;;;20.96;60.67;95644.27;1770607;81;21513;-64
2021/06/12 10:06:20;;;;;;;11.57;6.50;;;;;;;21.02;60.21;95637.71;1776473;81;21027;-64
2021/06/12 10:08:49;;;;;;;6.60;5.87;;;;;;;21.22;59.66;95630.67;1779928;81;21505;-64
2021/06/12 10:11:22;;;;;;;6.90;5.87;;;;;;;21.60;58.05;95631.05;1779655;81;21022;-64
2021/06/12 10:13:49;;;;;;;;;;;;;;;21.62;57.58;95633.66;1782501;81;21082;-64
2021/06/12 10:16:17;;;;;;;4.97;4.37;;;;;;;21.52;57.77;95641.41;1779499;81;20098;-64
2021/06/12 10:18:47;;;;;;;3.87;3.45;;;;;;;21.29;56.61;95648.14;1779699;81;20991;-64
2021/06/12 10:21:16;;;;;;;4.45;4.05;;;;;;;20.95;52.78;95642.08;1779673;81;21138;-64
2021/06/12 10:23:46;;;;;;;4.85;4.35;;;;;;;20.61;53.43;95647.66;1779474;81;20975;-64
2021/06/12 10:26:17;;;;;;;4.15;3.70;;;;;;;20.33;56.63;95653.22;1779754;81;21086;-64
2021/06/12 10:28:44;;;;;;;5.00;3.50;;;;;;;20.05;56.52;95655.23;1779674;81;21003;-64
2021/06/12 10:31:14;;;;;;;7.28;3.65;;;;;;;19.78;55.79;95659.82;1779598;81;21465;-64
2021/06/12 10:33:48;;;;;;;9.80;4.20;;;;;;;19.45;58.30;95661.08;1779541;81;21051;-65
2021/06/12 10:36:25;;;;;;;4.65;3.98;;;;;;;19.30;59.03;95661.41;1779389;81;21115;-64
2021/06/12 10:38:53;;;;;;;5.03;3.50;;;;;;;19.17;59.40;95662.52;1779628;81;21019;-64
2021/06/12 10:41:23;;;;;;;6.28;3.95;;;;;;;19.06;59.02;95660.88;1779693;81;21055;-64
2021/06/12 10:43:58;;;;;;;5.62;3.95;;;;;;;18.90;63.10;95664.80;1779658;81;21051;-65
2021/06/12 10:46:27;;;;;;;4.75;4.15;;;;;;;18.90;63.10;95664.80;1779645;81;21012;-64
2021/06/12 10:49:02;;;;;;;4.83;4.33;;;;;;;18.72;64.71;95671.91;1779525;81;21118;-64
2021/06/12 10:51:36;;;;;;;6.83;4.28;;;;;;;18.64;65.11;95680.75;1778253;81;21011;-64
2021/06/12 10:54:26;;;;;;;9.63;4.37;;;;;;;18.53;65.51;95703.13;1779916;81;21592;-64
2021/06/12 10:57:13;;;;;;;4.30;3.65;;;;;;;18.18;67.01;95706.14;1779763;81;21497;-64
2021/06/12 10:59:52;;;;;;;8.60;3.33;;;;;;;17.90;65.52;95694.92;1779356;81;21027;-64
2021/06/12 11:02:43;;;;;;;7.33;3.40;;;;;;;17.69;66.18;95695.88;1779904;81;21469;-64
2021/06/12 11:05:27;;;;;;;4.15;3.75;;;;;;;17.55;66.95;95698.28;1778053;81;21161;-64
2021/06/12 11:08:16;;;;;;;11.57;3.90;;;;;;;17.43;72.59;95693.88;1770877;81;21118;-64
2021/06/12 11:10:42;;;;;;;6.87;3.65;;;;;;;17.41;73.09;95682.88;1770910;81;21067;-64
2021/06/12 11:13:23;;;;;;;4.40;3.22;;;;;;;17.60;72.75;95685.61;1770944;81;20972;-64
2021/06/12 11:15:50;;;;;;;6.78;3.58;;;;;;;17.71;70.99;95679.30;1771079;81;21100;-64
2021/06/12 11:18:22;;;;;;;3.98;3.33;;;;;;;17.81;72.18;95682.46;1771001;81;21481;-64
2021/06/12 11:21:04;;;;;;;4.47;3.62;;;;;;;18.08;70.10;95677.66;1770612;81;21502;-64
2021/06/12 11:23:45;;;;;;;4.30;3.70;;;;;;;18.79;69.94;95662.64;1771057;81;21015;-64
2021/06/12 11:26:14;;;;;;;3.40;2.92;;;;;;;19.61;70.18;95660.68;1770930;81;20988;-64
2021/06/12 11:28:42;;;;;;;3.65;3.20;;;;;;;20.27;65.23;95655.77;1770926;81;21019;-64
2021/06/12 11:31:37;;;;;;;5.17;3.62;;;;;;;20.80;64.49;95654.19;1771070;81;21044;-64
2021/06/12 11:34:17;;;;;;;3.55;3.10;;;;;;;21.18;63.75;95653.27;1770758;81;21074;-64
2021/06/12 11:36:47;;;;;;;3.98;3.40;;;;;;;21.45;59.64;95650.78;1770860;81;21043;-64
2021/06/12 11:39:14;;;;;;;3.60;3.30;;;;;;;21.83;57.74;95657.82;1771012;81;21322;-64
2021/06/12 11:41:40;;;;;;;3.98;3.65;;;;;;;22.23;59.62;95649.98;1770791;81;21051;-64
2021/06/12 11:44:08;;;;;;;7.40;4.03;;;;;;;22.23;59.37;95641.91;1739030;81;20984;-64